Ride Results

Gordon Williams Memorial Ride 2009 (14-11-2009)
Ride distance: 80.0 km

Outcomes - Gordon Williams Memorial Ride 2009 (14-11-2009)
Division No. of Entries Retired / DNE Completed Withdrawn Ineligible V/O Percentage Completed
HW 7 - 4 1 - 2 57.14%
MW 17 - 15 - - 2 88.24%
LW 12 - 10 1 - 1 83.33%
JN 6 - 6 - - - 100.00%
Totals 42 - 35 2 - 5 83.33%
Results - Gordon Williams Memorial Ride 2009 (14-11-2009)
No. Rider Horse Place Time Leg Speeds Total
Km/Hr
H/R bpm
Heavyweight
94 Natalie Humphries Enderby Rakaia 1 5:45:00 17.0, 11.7 13.91 37, 53, 55 (Avg:54)
199 Kristine Chapple Highland View Stockman 2 6:19:00 13.2, 12.1 12.66 44, 48, 53 (Avg:50)
166 Craig Wilson Dollar Coin 3 6:33:00 13.1, 11.3 12.21 32, 45, 59 (Avg:52)
155 Gaylene Renwick Elphyn Flame 4 (BC) 6:36:00 13.2, 11.1 12.12 36, 40, 44 (Avg:42)
174 Merv Brown Dial Range Shard Lame L2 0:00:00 16.2, 12.3 - 44, 50, 55 (Avg:52)
70 Allan Wyllie At Dial Range Milo Lame L2 0:00:00 13.1, 10.3 - 40, 50, 59 (Avg:54)
27 Danza Hardwicke Special Resolution Withdrawn L1 0:00:00 - - 34, 45 (Avg:45)
Middleweight
99 Heather Johnson Black Heart Dashar 1 (BC) 5:09:00 18.0, 13.6 15.53 52, 49, 51 (Avg:50)
88 Anthony Bloom Kerribea 2 5:33:00 16.6, 12.6 14.41 38, 47, 49 (Avg:48)
21 Kylie Williams Baye 3 6:29:00 13.2, 11.5 12.34 38, 42, 57 (Avg:49)
57 Tania Jago River Gum Bounty 4 6:36:00 14.1, 10.6 12.12 38, 47, 52 (Avg:49)
169 Brent Marshall Meganja Park Mowgli 5 6:36:40 17.0, 9.3 12.10 44, 51, 58 (Avg:54)
22 Helen Astell Underwood Infinity 6 6:39:00 13.1, 11.0 12.03 34, 46, 47 (Avg:46)
160 Stacey Dodd Beer Street Lestat 7 6:39:10 13.1, 11.0 12.03 38, 51, 53 (Avg:52)
184 Janelle McLeod Bevolin Races The Wind 8 6:55:00 13.2, 10.2 11.57 42, 51, 51 (Avg:51)
42 Dianne Walsh Tierview El Mishkatarn 9 6:56:00 13.7, 9.9 11.54 60, 52, 49 (Avg:50)
102 Keryn Mahoney Tonki Dee Boo Cheers 10 7:19:00 12.4, 9.7 10.93 37, 44, 46 (Avg:45)
43 Bonny Burgess Rythem 11 7:31:00 12.4, 9.3 10.64 37, 42, 50 (Avg:46)
41 Lindi Wall Davlyn Park Pegasus 12 7:31:01 12.4, 9.3 10.64 40, 49, 46 (Avg:47)
55 Jane Stratton Ledger 13 7:39:00 12.3, 9.0 10.46 39, 48, 58 (Avg:53)
35 Jane Cutts Diamond Tail Lancer 14 7:39:01 12.3, 9.0 10.46 40, 42, 42 (Avg:42)
17 Ricky Febey Darryl 15 7:46:00 11.9, 9.0 10.30 41, 50, 57 (Avg:53)
30 Karyn Holden Anekib Lame L1 0:00:00 13.0 - 36, 47 (Avg:47)
162 Linda Pilgrim Sharnier Park Minhaan Lame L1 0:00:00 13.2 - 49, 45 (Avg:45)
Lightweight
136 Kaye Mitchell Beer Street Bluewitch 1 (BC) 5:13:00 13.2, 18.1 15.34 44, 48, 46 (Avg:47)
138 Kristen Robertson Resolution 2 5:37:00 16.6, 12.4 14.24 40, 52, 54 (Avg:53)
83 Angie Clark Omani Strike A Light 3 5:45:00 17.0, 11.7 13.91 35, 42, 44 (Avg:43)
188 Rachel Bennet Highland View Beau 4 6:19:00 13.3, 12.0 12.66 45, 53, 55 (Avg:54)
161 Mary Parkinson Elphyn Shadow 5 6:23:00 14.1, 11.2 12.53 39, 49, 50 (Avg:49)
144 Helan Green Cameo Roze Red 6 6:36:30 13.2, 11.1 12.11 48, 49, 52 (Avg:50)
J Tracey Nutting Acaciavej Shadowy Prince 7 6:57:00 17.6, 8.5 11.51 39, 44, 54 (Avg:49)
53 Deborah Cole The Joker 8 7:01:00 12.3, 10.5 11.40 31, 40, 42 (Avg:41)
115 Jenny Keygan Elphyn Max 9 7:01:01 12.3, 10.5 11.40 3, 47, 56 (Avg:51)
1 Ann Richards Tonki Dee Boo Pricilla 10 7:19:00 12.4, 9.7 10.93 39, 45, 43 (Avg:44)
24 Karen Quinn Harmere Basheer Lame L1 0:00:00 13.2 - 39, 46 (Avg:46)
135 Breaana Smith Walford Pride of Fleur Withdrawn L1 0:00:00 - - 31, 44 (Avg:44)
Junior
196 Amelia Napier Tanbark Jasper 1 6:32:00 13.0, 11.5 12.24 31, 43, 52 (Avg:47)
150 Emily Shadbolt Hume Creek Kadabra 1 (BC) 6:32:00 13.0, 11.5 12.24 44, 49, 54 (Avg:51)
92 Blaine Astell Harmere Burkhan 3 6:37:00 13.2, 11.1 12.09 40, 46, 45 (Avg:45)
147 Rhiannon Clayton Sand Storm Forever 4 6:40:00 13.1, 11.0 12.00 38, 42, 55 (Avg:48)
146 Raquel Clark At Dial Range Scopus 5 6:40:01 13.1, 11.0 12.00 40, 44, 50 (Avg:47)
128 Korey Stratton Pancho 6 7:39:00 12.3, 9.0 10.46 40, 47, 58 (Avg:52)